createdAt,value
2022-09-27T00:01:48.059Z,93499.69
2022-09-27T00:04:17.321Z,93506.28
2022-09-27T00:06:45.189Z,93493.91
2022-09-27T00:09:13.147Z,93501.38
2022-09-27T00:11:43.144Z,93500.50
2022-09-27T00:14:13.749Z,93499.13
2022-09-27T00:16:43.375Z,93498.56
2022-09-27T00:19:15.379Z,93480.78
2022-09-27T00:21:46.152Z,93520.19
2022-09-27T00:24:15.251Z,93519.03
2022-09-27T00:26:43.482Z,93510.84
2022-09-27T00:29:12.348Z,93527.56
2022-09-27T00:31:40.804Z,93513.44
2022-09-27T00:34:12.524Z,93519.50
2022-09-27T00:36:40.417Z,93498.22
2022-09-27T00:39:10.762Z,93502.97
2022-09-27T00:41:39.779Z,93490.56
2022-09-27T00:44:46.204Z,93488.28
2022-09-27T00:47:21.357Z,93491.00
2022-09-27T00:49:52.936Z,93491.88
2022-09-27T00:52:33.328Z,93464.47
2022-09-27T00:55:08.428Z,93470.88
2022-09-27T00:57:37.216Z,93482.16
2022-09-27T01:00:09.689Z,93462.75
2022-09-27T01:02:39.413Z,93461.91
2022-09-27T01:05:10.181Z,93483.72
2022-09-27T01:07:38.614Z,93472.59
2022-09-27T01:10:08.954Z,93481.81
2022-09-27T01:12:50.830Z,93476.09
2022-09-27T01:15:27.149Z,93474.69
2022-09-27T01:18:06.757Z,93464.34
2022-09-27T01:21:13.213Z,93459.88
2022-09-27T01:24:14.066Z,93448.66
2022-09-27T01:27:28.759Z,93484.44
2022-09-27T01:30:18.197Z,93437.03
2022-09-27T01:32:52.410Z,93433.69
2022-09-27T01:35:26.938Z,93457.28
2022-09-27T01:38:04.715Z,93474.28
2022-09-27T01:40:42.875Z,93468.75
2022-09-27T01:43:16.590Z,93471.75
2022-09-27T01:45:52.392Z,93442.28
2022-09-27T01:48:23.878Z,93451.75
2022-09-27T01:50:56.482Z,93457.69
2022-09-27T01:53:30.179Z,93450.56
2022-09-27T01:55:58.967Z,93465.75
2022-09-27T01:58:35.118Z,93452.00
2022-09-27T02:01:06.759Z,93446.22
2022-09-27T02:03:37.387Z,93451.09
2022-09-27T02:06:12.997Z,93451.44
2022-09-27T02:08:44.764Z,93419.25
2022-09-27T02:11:18.636Z,93422.34
2022-09-27T02:13:51.503Z,93425.84
2022-09-27T02:16:29.894Z,93427.66
2022-09-27T02:19:08.922Z,93417.22
2022-09-27T02:21:44.027Z,93399.59
2022-09-27T02:24:20.578Z,93404.06
2022-09-27T02:26:54.653Z,93374.16
2022-09-27T02:29:33.370Z,93395.78
2022-09-27T02:32:03.085Z,93390.09
2022-09-27T02:34:35.752Z,93371.91
2022-09-27T02:37:03.673Z,93367.13
2022-09-27T02:39:32.266Z,93366.44
2022-09-27T02:42:00.260Z,93337.78
2022-09-27T02:44:29.950Z,93366.22
2022-09-27T02:47:14.434Z,93369.72
2022-09-27T02:49:59.072Z,93398.00
2022-09-27T02:52:40.224Z,93382.00
2022-09-27T02:55:15.923Z,93373.47
2022-09-27T02:57:56.005Z,93393.94
2022-09-27T03:00:31.677Z,93392.22
2022-09-27T03:03:10.877Z,93388.38
2022-09-27T03:05:43.064Z,93342.34
2022-09-27T03:08:12.497Z,93368.16
2022-09-27T03:10:41.235Z,93344.16
2022-09-27T03:13:12.995Z,93322.91
2022-09-27T03:15:40.896Z,93330.66
2022-09-27T03:18:13.212Z,93315.19
2022-09-27T03:20:43.651Z,93308.47
2022-09-27T03:23:14.562Z,93323.13
2022-09-27T03:25:43.005Z,93313.81
2022-09-27T03:28:10.851Z,93314.94
2022-09-27T03:30:39.584Z,93302.25
2022-09-27T03:33:09.229Z,93294.63
2022-09-27T03:35:38.729Z,93318.38
2022-09-27T03:38:07.406Z,93312.72
2022-09-27T03:40:35.417Z,93316.78
2022-09-27T03:43:03.664Z,93315.88
2022-09-27T03:45:31.587Z,93315.75
2022-09-27T03:48:04.461Z,93319.06
2022-09-27T03:50:32.359Z,93319.72
2022-09-27T03:53:01.746Z,93313.03
2022-09-27T03:55:30.092Z,93326.34
2022-09-27T03:57:58.388Z,93318.47
2022-09-27T04:00:26.349Z,93303.03
2022-09-27T04:02:54.291Z,93308.25
2022-09-27T04:05:26.687Z,93321.09
2022-09-27T04:07:54.989Z,93328.59
2022-09-27T04:10:24.515Z,93314.75
2022-09-27T04:12:53.056Z,93318.84
2022-09-27T04:15:20.981Z,93309.16
2022-09-27T04:17:48.888Z,93305.75
2022-09-27T04:20:17.164Z,93302.13
2022-09-27T04:22:45.795Z,93288.94
2022-09-27T04:25:14.155Z,93291.09
2022-09-27T04:27:45.896Z,93307.91
2022-09-27T04:30:14.832Z,93308.81
2022-09-27T04:32:43.172Z,93303.47
2022-09-27T04:35:29.059Z,93307.34
2022-09-27T04:37:57.241Z,93314.88
2022-09-27T04:40:25.550Z,93312.91
2022-09-27T04:42:54.849Z,93298.38
2022-09-27T04:45:22.804Z,93300.06
2022-09-27T04:47:51.569Z,93291.88
2022-09-27T04:50:20.373Z,93322.00
2022-09-27T04:52:52.726Z,93319.16
2022-09-27T04:55:21.549Z,93321.09
2022-09-27T04:57:50.205Z,93324.28
2022-09-27T05:00:19.808Z,93334.53
2022-09-27T05:02:48.724Z,93329.28
2022-09-27T05:05:17.296Z,93324.97
2022-09-27T05:07:45.189Z,93306.22
2022-09-27T05:10:13.098Z,93292.13
2022-09-27T05:12:41.588Z,93309.50
2022-09-27T05:15:10.774Z,93288.25
2022-09-27T05:17:40.022Z,93281.44
2022-09-27T05:20:09.876Z,93290.19
2022-09-27T05:22:37.969Z,93285.97
2022-09-27T05:25:06.777Z,93292.00
2022-09-27T05:27:34.743Z,93286.97
2022-09-27T05:30:02.674Z,93288.28
2022-09-27T05:32:30.975Z,93275.75
2022-09-27T05:35:01.500Z,93270.25
2022-09-27T05:37:30.062Z,93276.63
2022-09-27T05:39:58.064Z,93272.97
2022-09-27T05:42:25.965Z,93292.84
2022-09-27T05:44:53.814Z,93307.63
2022-09-27T05:47:21.762Z,93297.94
2022-09-27T05:49:49.690Z,93289.56
2022-09-27T05:52:20.270Z,93293.94
2022-09-27T05:54:49.473Z,93304.44
2022-09-27T05:57:17.384Z,93304.00
2022-09-27T05:59:45.444Z,93306.81
2022-09-27T06:02:14.900Z,93303.75
2022-09-27T06:04:58.717Z,93298.41
2022-09-27T06:07:28.990Z,93295.44
2022-09-27T06:09:56.883Z,93303.94
2022-09-27T06:12:24.870Z,93297.72
2022-09-27T06:14:52.754Z,93306.94
2022-09-27T06:17:20.912Z,93303.06
2022-09-27T06:19:49.473Z,93301.66
2022-09-27T06:22:17.392Z,93296.97
2022-09-27T06:24:46.704Z,93291.97
2022-09-27T06:27:14.568Z,93299.59
2022-09-27T06:29:42.437Z,93278.88
2022-09-27T06:32:10.835Z,93284.19
2022-09-27T06:34:38.716Z,93288.16
2022-09-27T06:37:06.786Z,93291.41
2022-09-27T06:39:35.108Z,93295.69
2022-09-27T06:42:04.939Z,93292.88
2022-09-27T06:44:36.090Z,93288.38
2022-09-27T06:47:04.122Z,93286.56
2022-09-27T06:49:32.120Z,93298.72
2022-09-27T06:52:00.099Z,93318.53
2022-09-27T06:54:28.024Z,93309.22
2022-09-27T06:56:59.025Z,93268.84
2022-09-27T06:59:49.048Z,93279.66
2022-09-27T07:02:16.982Z,93284.09
2022-09-27T07:04:44.945Z,93286.94
2022-09-27T07:07:13.908Z,93303.88
2022-09-27T07:09:45.039Z,93298.25
2022-09-27T07:12:13.454Z,93297.38
2022-09-27T07:14:42.719Z,93303.06
2022-09-27T07:17:10.589Z,93309.75
2022-09-27T07:19:38.527Z,93309.53
2022-09-27T07:22:06.408Z,93281.41
2022-09-27T07:24:34.718Z,93277.91
2022-09-27T07:27:02.708Z,93306.59
2022-09-27T07:29:30.661Z,93293.34
2022-09-27T07:31:59.983Z,93303.47
2022-09-27T07:34:28.145Z,93320.38
2022-09-27T07:37:00.575Z,93309.13
2022-09-27T07:39:28.734Z,93303.03
2022-09-27T07:41:56.779Z,93304.72
2022-09-27T07:44:24.777Z,93305.03
2022-09-27T07:46:52.847Z,93326.28
2022-09-27T07:49:22.160Z,93336.56
2022-09-27T07:51:50.203Z,93335.06
2022-09-27T07:54:20.019Z,93314.47
2022-09-27T07:56:48.037Z,93317.69
2022-09-27T07:59:16.036Z,93312.53
2022-09-27T08:01:45.814Z,93308.78
2022-09-27T08:04:13.697Z,93311.50
2022-09-27T08:06:43.274Z,93310.63
2022-09-27T08:09:11.561Z,93274.41
2022-09-27T08:11:39.759Z,93279.50
2022-09-27T08:14:07.775Z,93280.31
2022-09-27T08:16:35.745Z,93284.72
2022-09-27T08:19:16.572Z,93294.41
2022-09-27T08:21:46.137Z,93279.78
2022-09-27T08:24:14.030Z,93284.28
2022-09-27T08:26:49.640Z,93288.25
2022-09-27T08:29:17.590Z,93301.28
2022-09-27T08:31:45.557Z,93285.78
2022-09-27T08:34:13.617Z,93259.75
2022-09-27T08:36:43.920Z,93262.19
2022-09-27T08:39:13.706Z,93271.78
2022-09-27T08:41:48.775Z,93260.91
2022-09-27T08:44:26.505Z,93260.66
2022-09-27T08:47:03.668Z,93262.06
2022-09-27T08:49:37.863Z,93266.97
2022-09-27T08:52:09.363Z,93254.81
2022-09-27T08:54:39.522Z,93273.19
2022-09-27T08:57:12.915Z,93256.63
2022-09-27T08:59:43.197Z,93265.69
2022-09-27T09:02:19.044Z,93258.00
2022-09-27T09:04:49.397Z,93266.34
2022-09-27T09:07:38.979Z,93261.25
2022-09-27T09:10:48.700Z,93258.00
2022-09-27T09:13:24.394Z,93249.31
2022-09-27T09:16:02.030Z,93252.00
2022-09-27T09:18:47.996Z,93256.16
2022-09-27T09:21:37.006Z,93261.28
2022-09-27T09:24:25.751Z,93267.97
2022-09-27T09:27:03.480Z,93266.06
2022-09-27T09:29:47.217Z,93261.44
2022-09-27T09:32:30.631Z,93261.66
2022-09-27T09:35:02.783Z,93256.03
2022-09-27T09:37:38.886Z,93251.91
2022-09-27T09:40:18.120Z,93260.31
2022-09-27T09:42:53.941Z,93268.31
2022-09-27T09:45:27.650Z,93276.41
2022-09-27T09:48:02.110Z,93262.16
2022-09-27T09:50:36.710Z,93267.78
2022-09-27T09:53:13.219Z,93276.06
2022-09-27T09:55:43.408Z,93271.03
2022-09-27T09:58:22.794Z,93261.13
2022-09-27T10:00:54.893Z,93265.41
2022-09-27T10:03:24.501Z,93262.00
2022-09-27T10:05:52.496Z,93263.09
2022-09-27T10:08:22.666Z,93267.25
2022-09-27T10:10:50.683Z,93239.81
2022-09-27T10:13:22.498Z,93253.91
2022-09-27T10:15:58.310Z,93253.13
2022-09-27T10:18:28.404Z,93241.09
2022-09-27T10:21:01.054Z,93234.06
2022-09-27T10:23:30.103Z,93234.03
2022-09-27T10:26:01.266Z,93232.25
2022-09-27T10:28:37.519Z,93227.00
2022-09-27T10:31:08.212Z,93234.41
2022-09-27T10:33:38.607Z,93245.22
2022-09-27T10:36:24.554Z,93256.25
2022-09-27T10:38:55.395Z,93252.00
2022-09-27T10:41:27.767Z,93259.66
2022-09-27T10:43:57.036Z,93259.41
2022-09-27T10:46:28.866Z,93245.72
2022-09-27T10:49:17.637Z,93238.94
2022-09-27T10:51:47.634Z,93222.53
2022-09-27T10:54:22.059Z,93220.59
2022-09-27T10:56:58.076Z,93217.06
2022-09-27T10:59:30.730Z,93250.06
2022-09-27T11:01:59.868Z,93253.91
2022-09-27T11:04:32.138Z,93253.25
2022-09-27T11:07:15.375Z,93259.13
2022-09-27T11:10:03.047Z,93266.19
2022-09-27T11:12:32.125Z,93275.81
2022-09-27T11:15:06.137Z,93277.44
2022-09-27T11:17:38.997Z,93274.75
2022-09-27T11:20:17.740Z,93268.56
2022-09-27T11:23:20.765Z,93268.31
2022-09-27T11:26:04.828Z,93261.97
2022-09-27T11:28:45.606Z,93280.47
2022-09-27T11:31:24.996Z,93279.22
2022-09-27T11:34:05.967Z,93277.34
2022-09-27T11:36:44.803Z,93279.59
2022-09-27T11:39:20.897Z,93267.25
2022-09-27T11:42:07.835Z,93259.78
2022-09-27T11:45:31.867Z,93266.13
2022-09-27T11:48:07.211Z,93273.63
2022-09-27T11:50:56.853Z,93267.00
2022-09-27T11:53:37.073Z,93272.78
2022-09-27T11:56:13.537Z,93266.88
2022-09-27T11:59:07.746Z,93270.13
2022-09-27T12:01:51.016Z,93264.13
2022-09-27T12:05:16.747Z,93266.59
2022-09-27T12:07:51.455Z,93251.09
2022-09-27T12:10:21.427Z,93247.25
2022-09-27T12:12:53.657Z,93243.94
2022-09-27T12:15:24.169Z,93242.69
2022-09-27T12:18:12.209Z,93245.63
2022-09-27T12:20:43.533Z,93238.53
2022-09-27T12:23:20.799Z,93243.53
2022-09-27T12:25:54.459Z,93226.75
2022-09-27T12:28:34.983Z,93204.94
2022-09-27T12:31:28.547Z,93196.97
2022-09-27T12:34:17.560Z,93184.78
2022-09-27T12:37:06.533Z,93184.94
2022-09-27T12:39:46.053Z,93171.03
2022-09-27T12:42:19.292Z,93173.97
2022-09-27T12:44:50.499Z,93177.47
2022-09-27T12:47:45.391Z,93179.13
2022-09-27T12:50:21.168Z,93166.91
2022-09-27T12:52:54.421Z,93176.84
2022-09-27T12:55:54.040Z,93150.84
2022-09-27T12:58:49.605Z,93157.91
2022-09-27T13:01:28.475Z,93165.09
2022-09-27T13:04:25.539Z,93176.47
2022-09-27T13:07:09.604Z,93152.41
2022-09-27T13:10:10.167Z,93183.78
2022-09-27T13:12:41.817Z,93192.97
2022-09-27T13:15:18.940Z,93182.31
2022-09-27T13:17:56.494Z,93177.50
2022-09-27T13:20:49.491Z,93183.22
2022-09-27T13:23:57.975Z,93182.44
2022-09-27T13:26:45.005Z,93176.97
2022-09-27T13:29:30.120Z,93193.47
2022-09-27T13:32:22.705Z,93162.72
2022-09-27T13:34:53.779Z,93157.16
2022-09-27T13:37:50.817Z,93139.97
2022-09-27T13:40:30.878Z,93138.31
2022-09-27T13:43:16.453Z,93162.00
2022-09-27T13:46:00.159Z,93169.19
2022-09-27T13:48:33.328Z,93186.09
2022-09-27T13:51:05.567Z,93193.63
2022-09-27T13:53:37.167Z,93189.13
2022-09-27T13:56:05.982Z,93187.94
2022-09-27T13:58:52.524Z,93188.00
2022-09-27T14:01:29.795Z,93169.56
2022-09-27T14:04:01.962Z,93195.66
2022-09-27T14:06:35.279Z,93183.09
2022-09-27T14:09:06.746Z,93180.03
2022-09-27T14:11:38.961Z,93171.75
2022-09-27T14:14:08.790Z,93159.69
2022-09-27T14:16:46.340Z,93158.16
2022-09-27T14:19:17.707Z,93162.19
2022-09-27T14:21:46.577Z,93160.13
2022-09-27T14:24:30.225Z,93153.78
2022-09-27T14:27:22.709Z,93155.81
2022-09-27T14:29:53.347Z,93156.63
2022-09-27T14:32:25.320Z,93158.78
2022-09-27T14:35:28.289Z,93130.59
2022-09-27T14:37:56.513Z,93138.06
2022-09-27T14:40:25.025Z,93126.50
2022-09-27T14:42:57.029Z,93159.81
2022-09-27T14:45:30.217Z,93138.59
2022-09-27T14:48:00.683Z,93119.81
2022-09-27T14:50:30.975Z,93122.03
2022-09-27T14:53:00.933Z,93114.63
2022-09-27T14:55:34.935Z,93117.28
2022-09-27T14:58:05.501Z,93125.06
2022-09-27T15:00:37.124Z,93141.84
2022-09-27T15:03:10.763Z,93133.69
2022-09-27T15:05:42.876Z,93107.56
2022-09-27T15:08:15.321Z,93140.69
2022-09-27T15:10:45.064Z,93170.09
2022-09-27T15:13:18.771Z,93249.16
2022-09-27T15:15:48.834Z,93178.66
2022-09-27T15:18:41.444Z,93133.97
2022-09-27T15:21:11.155Z,93154.19
2022-09-27T15:23:41.471Z,93147.94
2022-09-27T15:26:14.589Z,93175.22
2022-09-27T15:28:45.310Z,93170.59
2022-09-27T15:31:14.225Z,93161.38
2022-09-27T15:33:52.446Z,93150.81
2022-09-27T15:36:51.863Z,93114.47
2022-09-27T15:39:22.282Z,93110.41
2022-09-27T15:42:05.505Z,93142.41
2022-09-27T15:44:55.927Z,93183.50
2022-09-27T15:47:44.237Z,93199.16
2022-09-27T15:50:39.709Z,93160.22
2022-09-27T15:53:09.672Z,93125.59
2022-09-27T15:55:42.350Z,93118.25
2022-09-27T15:58:16.657Z,93134.59
2022-09-27T16:00:55.287Z,93145.81
2022-09-27T16:03:23.672Z,93162.16
2022-09-27T16:05:53.347Z,93158.06
2022-09-27T16:08:21.711Z,93165.47
2022-09-27T16:10:52.737Z,93168.19
2022-09-27T16:13:21.061Z,93162.59
2022-09-27T16:15:49.624Z,93187.78
2022-09-27T16:18:18.146Z,93182.44
2022-09-27T16:20:46.856Z,93174.00
2022-09-27T16:23:16.173Z,93192.06
2022-09-27T16:25:44.160Z,93174.75
2022-09-27T16:28:12.677Z,93124.28
2022-09-27T16:30:40.729Z,93150.00
2022-09-27T16:33:08.764Z,93181.59
2022-09-27T16:35:36.760Z,93198.19
2022-09-27T16:38:04.671Z,93172.38
2022-09-27T16:40:34.098Z,93163.88
2022-09-27T16:43:03.494Z,93162.78
2022-09-27T16:45:34.283Z,93167.84
2022-09-27T16:48:03.021Z,93180.31
2022-09-27T16:50:48.688Z,93172.78
2022-09-27T16:53:16.763Z,93182.78
2022-09-27T16:55:46.651Z,93182.16
2022-09-27T16:58:14.646Z,93180.72
2022-09-27T17:00:43.389Z,93172.06
2022-09-27T17:03:11.402Z,93181.59
2022-09-27T17:05:39.281Z,93183.72
2022-09-27T17:08:07.289Z,93191.25
2022-09-27T17:10:35.854Z,93191.59
2022-09-27T17:13:05.142Z,93190.00
2022-09-27T17:15:33.132Z,93186.81
2022-09-27T17:18:01.089Z,93210.19
2022-09-27T17:20:28.965Z,93220.78
2022-09-27T17:22:57.796Z,93216.34
2022-09-27T17:25:28.165Z,93220.50
2022-09-27T17:27:57.035Z,93208.41
2022-09-27T17:30:30.439Z,93233.28
2022-09-27T17:32:59.251Z,93240.19
2022-09-27T17:35:27.264Z,93252.84
2022-09-27T17:37:55.178Z,93246.38
2022-09-27T17:40:23.226Z,93239.69
2022-09-27T17:42:51.139Z,93226.84
2022-09-27T17:45:19.074Z,93220.78
2022-09-27T17:48:07.196Z,93210.53
2022-09-27T17:50:37.433Z,93232.47
2022-09-27T17:53:05.350Z,93237.41
2022-09-27T17:55:33.824Z,93231.66
2022-09-27T17:58:02.222Z,93226.34
2022-09-27T18:00:30.545Z,93249.66
2022-09-27T18:03:00.409Z,93242.84
2022-09-27T18:05:29.214Z,93236.66
2022-09-27T18:07:57.118Z,93235.38
2022-09-27T18:10:25.257Z,93233.16
2022-09-27T18:12:53.895Z,93238.09
2022-09-27T18:15:21.782Z,93243.78
2022-09-27T18:17:54.561Z,93256.66
2022-09-27T18:20:27.310Z,93262.50
2022-09-27T18:22:56.575Z,93277.50
2022-09-27T18:25:25.253Z,93268.53
2022-09-27T18:27:56.004Z,93256.16
2022-09-27T18:30:24.983Z,93261.16
2022-09-27T18:32:54.186Z,93259.44
2022-09-27T18:35:24.385Z,93265.22
2022-09-27T18:37:54.792Z,93272.16
2022-09-27T18:40:44.495Z,93257.66
2022-09-27T18:43:11.229Z,93286.09
2022-09-27T18:45:39.674Z,93284.50
2022-09-27T18:48:07.612Z,93279.84
2022-09-27T18:50:38.912Z,93279.94
2022-09-27T18:53:09.019Z,93272.34
2022-09-27T18:55:38.534Z,93277.56
2022-09-27T18:58:06.534Z,93286.53
2022-09-27T19:00:34.753Z,93267.00
2022-09-27T19:03:02.764Z,93282.81
2022-09-27T19:05:30.646Z,93296.09
2022-09-27T19:07:58.524Z,93297.13
2022-09-27T19:10:27.795Z,93307.81
2022-09-27T19:12:57.224Z,93304.38
2022-09-27T19:15:25.665Z,93301.53
2022-09-27T19:17:53.589Z,93307.34
2022-09-27T19:20:21.669Z,93293.94
2022-09-27T19:22:49.565Z,93314.06
2022-09-27T19:25:17.708Z,93312.81
2022-09-27T19:27:47.263Z,93319.59
2022-09-27T19:30:15.350Z,93311.09
2022-09-27T19:32:43.541Z,93314.16
2022-09-27T19:35:12.555Z,93297.34
2022-09-27T19:37:40.680Z,93317.09
2022-09-27T19:40:09.295Z,93321.06
2022-09-27T19:42:37.531Z,93321.06
2022-09-27T19:45:12.346Z,93319.00
2022-09-27T19:47:40.274Z,93324.16
2022-09-27T19:50:12.078Z,93320.06
2022-09-27T19:52:41.325Z,93328.81
2022-09-27T19:55:10.354Z,93337.81
2022-09-27T19:57:38.351Z,93339.59
2022-09-27T20:00:14.384Z,93340.06
2022-09-27T20:02:43.409Z,93311.66
2022-09-27T20:05:11.485Z,93319.59
2022-09-27T20:07:46.140Z,93301.19
2022-09-27T20:10:14.457Z,93319.63
2022-09-27T20:12:44.738Z,93331.00
2022-09-27T20:15:14.908Z,93344.75
2022-09-27T20:17:42.807Z,93333.47
2022-09-27T20:20:11.146Z,93343.72
2022-09-27T20:22:39.113Z,93350.66
2022-09-27T20:25:07.984Z,93356.56
2022-09-27T20:27:39.308Z,93347.25
2022-09-27T20:30:11.977Z,93359.06
2022-09-27T20:32:41.697Z,93365.09
2022-09-27T20:35:11.261Z,93360.66
2022-09-27T20:37:39.222Z,93361.44
2022-09-27T20:40:08.111Z,93354.63
2022-09-27T20:42:36.005Z,93356.53
2022-09-27T20:45:04.112Z,93368.03
2022-09-27T20:47:32.095Z,93363.72
2022-09-27T20:50:03.140Z,93365.41
2022-09-27T20:52:31.057Z,93367.59
2022-09-27T20:54:59.016Z,93350.88
2022-09-27T20:57:40.431Z,93370.78
2022-09-27T21:00:15.857Z,93378.72
2022-09-27T21:02:43.798Z,93380.22
2022-09-27T21:05:13.122Z,93382.25
2022-09-27T21:07:41.371Z,93392.81
2022-09-27T21:10:09.727Z,93391.25
2022-09-27T21:12:37.657Z,93395.13
2022-09-27T21:15:05.943Z,93394.53
2022-09-27T21:17:33.863Z,93392.03
2022-09-27T21:20:02.061Z,93384.63
2022-09-27T21:22:31.597Z,93386.81
2022-09-27T21:24:59.479Z,93384.06
2022-09-27T21:27:27.387Z,93375.19
2022-09-27T21:29:55.381Z,93379.88
2022-09-27T21:32:23.226Z,93367.16
2022-09-27T21:34:51.140Z,93380.09
2022-09-27T21:37:19.063Z,93383.72
2022-09-27T21:39:48.308Z,93375.88
2022-09-27T21:42:16.198Z,93397.03
2022-09-27T21:44:44.165Z,93393.97
2022-09-27T21:47:13.592Z,93406.47
2022-09-27T21:49:41.525Z,93417.84
2022-09-27T21:52:09.422Z,93417.06
2022-09-27T21:54:37.317Z,93410.88
2022-09-27T21:57:06.559Z,93411.13
2022-09-27T21:59:34.437Z,93396.75
2022-09-27T22:02:02.357Z,93392.22
2022-09-27T22:04:30.334Z,93387.00
2022-09-27T22:06:58.313Z,93383.69
2022-09-27T22:09:26.168Z,93392.75
2022-09-27T22:11:54.294Z,93393.59
2022-09-27T22:14:23.959Z,93395.84
2022-09-27T22:16:51.872Z,93387.00
2022-09-27T22:19:20.908Z,93390.63
2022-09-27T22:21:48.855Z,93384.69
2022-09-27T22:24:18.495Z,93380.78
2022-09-27T22:26:48.694Z,93384.38
2022-09-27T22:29:17.334Z,93393.06
2022-09-27T22:31:46.984Z,93394.69
2022-09-27T22:34:18.955Z,93387.31
2022-09-27T22:36:47.273Z,93403.53
2022-09-27T22:39:15.235Z,93384.25
2022-09-27T22:41:43.246Z,93386.31
2022-09-27T22:44:11.162Z,93396.63
2022-09-27T22:46:39.169Z,93394.78
2022-09-27T22:49:08.624Z,93384.94
2022-09-27T22:51:36.565Z,93388.78
2022-09-27T22:54:04.844Z,93383.34
2022-09-27T22:56:32.750Z,93386.38
2022-09-27T22:59:00.813Z,93382.63
2022-09-27T23:01:28.717Z,93385.59
2022-09-27T23:03:57.266Z,93385.22
2022-09-27T23:06:26.614Z,93375.94
2022-09-27T23:08:55.096Z,93373.56
2022-09-27T23:11:23.920Z,93380.00
2022-09-27T23:13:52.933Z,93373.28
2022-09-27T23:16:24.444Z,93379.16
2022-09-27T23:18:54.221Z,93375.75
2022-09-27T23:21:24.176Z,93381.25
2022-09-27T23:23:55.234Z,93368.47
2022-09-27T23:26:26.206Z,93365.59
2022-09-27T23:28:56.792Z,93366.84
2022-09-27T23:31:25.518Z,93359.22
2022-09-27T23:33:54.390Z,93375.22
2022-09-27T23:36:26.030Z,93364.50
2022-09-27T23:38:56.599Z,93362.19
2022-09-27T23:41:24.485Z,93368.63
2022-09-27T23:43:53.422Z,93360.81
2022-09-27T23:46:21.830Z,93359.94
2022-09-27T23:48:49.815Z,93368.25
2022-09-27T23:51:17.768Z,93371.50
2022-09-27T23:53:45.772Z,93358.78
2022-09-27T23:56:16.912Z,93367.56
2022-09-27T23:58:46.612Z,93343.63
